sensor_id;sensor_type;location;lat;lon;timestamp;temperature;humidity
14378;DHT22;7272;53.668;9.578;2022-07-29T00:02:15;14.10;99.90
14378;DHT22;7272;53.668;9.578;2022-07-29T00:05:16;14.00;99.90
14378;DHT22;7272;53.668;9.578;2022-07-29T00:08:18;13.90;99.90
14378;DHT22;7272;53.668;9.578;2022-07-29T00:11:23;13.90;99.90
14378;DHT22;7272;53.668;9.578;2022-07-29T00:14:27;13.90;99.90
14378;DHT22;7272;53.668;9.578;2022-07-29T00:17:29;13.80;99.90
14378;DHT22;7272;53.668;9.578;2022-07-29T00:20:31;13.70;99.90
14378;DHT22;7272;53.668;9.578;2022-07-29T00:23:33;13.70;99.90
14378;DHT22;7272;53.668;9.578;2022-07-29T00:26:35;13.70;99.90
14378;DHT22;7272;53.668;9.578;2022-07-29T00:29:38;13.70;99.90
14378;DHT22;7272;53.668;9.578;2022-07-29T00:32:40;13.70;99.90
14378;DHT22;7272;53.668;9.578;2022-07-29T00:35:42;13.70;99.90
14378;DHT22;7272;53.668;9.578;2022-07-29T00:38:48;13.80;99.90
14378;DHT22;7272;53.668;9.578;2022-07-29T00:41:50;13.70;99.90
14378;DHT22;7272;53.668;9.578;2022-07-29T00:44:54;13.60;99.90
14378;DHT22;7272;53.668;9.578;2022-07-29T00:47:56;13.60;99.90
14378;DHT22;7272;53.668;9.578;2022-07-29T00:51:00;13.50;99.90
14378;DHT22;7272;53.668;9.578;2022-07-29T00:54:03;13.60;99.90
14378;DHT22;7272;53.668;9.578;2022-07-29T00:57:06;13.60;99.90
14378;DHT22;7272;53.668;9.578;2022-07-29T01:00:12;13.60;99.90
14378;DHT22;7272;53.668;9.578;2022-07-29T01:03:15;13.70;99.90
14378;DHT22;7272;53.668;9.578;2022-07-29T01:06:18;13.60;99.90
14378;DHT22;7272;53.668;9.578;2022-07-29T01:09:21;13.60;99.90
14378;DHT22;7272;53.668;9.578;2022-07-29T01:12:25;13.50;99.90
14378;DHT22;7272;53.668;9.578;2022-07-29T01:15:29;13.50;99.90
14378;DHT22;7272;53.668;9.578;2022-07-29T01:18:34;13.30;99.90
14378;DHT22;7272;53.668;9.578;2022-07-29T01:21:51;13.20;99.90
14378;DHT22;7272;53.668;9.578;2022-07-29T01:25:11;13.10;99.90
14378;DHT22;7272;53.668;9.578;2022-07-29T01:28:44;13.00;99.90
14378;DHT22;7272;53.668;9.578;2022-07-29T01:31:54;12.90;99.90
14378;DHT22;7272;53.668;9.578;2022-07-29T01:35:04;12.90;99.90
14378;DHT22;7272;53.668;9.578;2022-07-29T01:38:10;12.90;99.90
14378;DHT22;7272;53.668;9.578;2022-07-29T01:41:16;12.90;99.90
14378;DHT22;7272;53.668;9.578;2022-07-29T01:44:24;12.80;99.90
14378;DHT22;7272;53.668;9.578;2022-07-29T01:47:33;12.90;99.90
14378;DHT22;7272;53.668;9.578;2022-07-29T01:50:42;12.90;99.90
14378;DHT22;7272;53.668;9.578;2022-07-29T01:53:51;12.90;99.90
14378;DHT22;7272;53.668;9.578;2022-07-29T01:56:56;12.80;99.90
14378;DHT22;7272;53.668;9.578;2022-07-29T02:00:03;12.80;99.90
14378;DHT22;7272;53.668;9.578;2022-07-29T02:03:13;12.80;99.90
14378;DHT22;7272;53.668;9.578;2022-07-29T02:06:19;12.80;99.90
14378;DHT22;7272;53.668;9.578;2022-07-29T02:09:22;12.80;99.90
14378;DHT22;7272;53.668;9.578;2022-07-29T02:12:26;12.90;99.90
14378;DHT22;7272;53.668;9.578;2022-07-29T02:15:32;13.00;99.90
14378;DHT22;7272;53.668;9.578;2022-07-29T02:18:36;12.90;99.90
14378;DHT22;7272;53.668;9.578;2022-07-29T02:21:39;12.90;99.90
14378;DHT22;7272;53.668;9.578;2022-07-29T02:24:44;12.90;99.90
14378;DHT22;7272;53.668;9.578;2022-07-29T02:27:47;12.90;99.90
14378;DHT22;7272;53.668;9.578;2022-07-29T02:30:53;12.90;99.90
14378;DHT22;7272;53.668;9.578;2022-07-29T02:33:57;12.90;99.90
14378;DHT22;7272;53.668;9.578;2022-07-29T02:37:00;13.00;99.90
14378;DHT22;7272;53.668;9.578;2022-07-29T02:40:03;13.10;99.90
14378;DHT22;7272;53.668;9.578;2022-07-29T02:43:07;13.10;99.90
14378;DHT22;7272;53.668;9.578;2022-07-29T02:46:16;13.10;99.90
14378;DHT22;7272;53.668;9.578;2022-07-29T02:49:32;13.10;99.90
14378;DHT22;7272;53.668;9.578;2022-07-29T02:52:40;13.20;99.90
14378;DHT22;7272;53.668;9.578;2022-07-29T02:55:46;13.20;99.90
14378;DHT22;7272;53.668;9.578;2022-07-29T02:58:54;13.30;99.90
14378;DHT22;7272;53.668;9.578;2022-07-29T03:01:59;13.30;99.90
14378;DHT22;7272;53.668;9.578;2022-07-29T03:05:03;13.40;99.90
14378;DHT22;7272;53.668;9.578;2022-07-29T03:08:08;13.50;99.90
14378;DHT22;7272;53.668;9.578;2022-07-29T03:11:11;13.50;99.90
14378;DHT22;7272;53.668;9.578;2022-07-29T03:14:14;13.60;99.90
14378;DHT22;7272;53.668;9.578;2022-07-29T03:17:18;13.60;99.90
14378;DHT22;7272;53.668;9.578;2022-07-29T03:20:21;13.60;99.90
14378;DHT22;7272;53.668;9.578;2022-07-29T03:23:23;13.60;99.90
14378;DHT22;7272;53.668;9.578;2022-07-29T03:26:28;13.70;99.90
14378;DHT22;7272;53.668;9.578;2022-07-29T03:29:30;13.70;99.90
14378;DHT22;7272;53.668;9.578;2022-07-29T03:32:34;13.70;99.90
14378;DHT22;7272;53.668;9.578;2022-07-29T03:35:36;13.70;99.90
14378;DHT22;7272;53.668;9.578;2022-07-29T03:38:39;13.70;99.90
14378;DHT22;7272;53.668;9.578;2022-07-29T03:41:45;13.70;99.90
14378;DHT22;7272;53.668;9.578;2022-07-29T03:44:50;13.70;99.90
14378;DHT22;7272;53.668;9.578;2022-07-29T03:47:59;13.70;99.90
14378;DHT22;7272;53.668;9.578;2022-07-29T03:51:02;13.70;99.90
14378;DHT22;7272;53.668;9.578;2022-07-29T03:54:05;13.80;99.90
14378;DHT22;7272;53.668;9.578;2022-07-29T03:57:07;13.90;99.90
14378;DHT22;7272;53.668;9.578;2022-07-29T04:00:12;13.90;99.90
14378;DHT22;7272;53.668;9.578;2022-07-29T04:03:15;13.90;99.90
14378;DHT22;7272;53.668;9.578;2022-07-29T04:06:17;13.90;99.90
14378;DHT22;7272;53.668;9.578;2022-07-29T04:09:19;13.90;99.90
14378;DHT22;7272;53.668;9.578;2022-07-29T04:12:21;13.90;99.90
14378;DHT22;7272;53.668;9.578;2022-07-29T04:15:23;13.90;99.90
14378;DHT22;7272;53.668;9.578;2022-07-29T04:18:27;13.80;99.90
14378;DHT22;7272;53.668;9.578;2022-07-29T04:21:29;14.00;99.90
14378;DHT22;7272;53.668;9.578;2022-07-29T04:24:31;14.00;99.90
14378;DHT22;7272;53.668;9.578;2022-07-29T04:27:33;13.90;99.90
14378;DHT22;7272;53.668;9.578;2022-07-29T04:30:36;13.90;99.90
14378;DHT22;7272;53.668;9.578;2022-07-29T04:33:39;13.90;99.90
14378;DHT22;7272;53.668;9.578;2022-07-29T04:36:41;13.90;99.90
14378;DHT22;7272;53.668;9.578;2022-07-29T04:39:43;13.90;99.90
14378;DHT22;7272;53.668;9.578;2022-07-29T04:42:45;13.90;99.90
14378;DHT22;7272;53.668;9.578;2022-07-29T04:45:47;13.90;99.90
14378;DHT22;7272;53.668;9.578;2022-07-29T04:48:51;14.10;99.90
14378;DHT22;7272;53.668;9.578;2022-07-29T04:51:53;14.40;99.90
14378;DHT22;7272;53.668;9.578;2022-07-29T04:54:55;14.30;99.90
14378;DHT22;7272;53.668;9.578;2022-07-29T04:57:57;14.30;99.90
14378;DHT22;7272;53.668;9.578;2022-07-29T05:01:00;14.40;99.90
14378;DHT22;7272;53.668;9.578;2022-07-29T05:04:03;14.40;99.90
14378;DHT22;7272;53.668;9.578;2022-07-29T05:07:05;14.50;99.90
14378;DHT22;7272;53.668;9.578;2022-07-29T05:10:08;14.50;99.90
14378;DHT22;7272;53.668;9.578;2022-07-29T05:13:10;14.80;99.90
14378;DHT22;7272;53.668;9.578;2022-07-29T05:16:12;15.00;99.90
14378;DHT22;7272;53.668;9.578;2022-07-29T05:19:16;15.00;99.90
14378;DHT22;7272;53.668;9.578;2022-07-29T05:22:21;15.10;99.90
14378;DHT22;7272;53.668;9.578;2022-07-29T05:25:23;15.10;99.90
14378;DHT22;7272;53.668;9.578;2022-07-29T05:28:25;15.20;99.90
14378;DHT22;7272;53.668;9.578;2022-07-29T05:31:27;15.30;99.90
14378;DHT22;7272;53.668;9.578;2022-07-29T05:34:31;15.50;99.90
14378;DHT22;7272;53.668;9.578;2022-07-29T05:37:33;15.50;99.90
14378;DHT22;7272;53.668;9.578;2022-07-29T05:40:35;15.70;99.90
14378;DHT22;7272;53.668;9.578;2022-07-29T05:43:37;15.90;99.90
14378;DHT22;7272;53.668;9.578;2022-07-29T05:46:39;16.00;99.90
14378;DHT22;7272;53.668;9.578;2022-07-29T05:49:43;16.00;99.90
14378;DHT22;7272;53.668;9.578;2022-07-29T05:52:44;16.00;99.90
14378;DHT22;7272;53.668;9.578;2022-07-29T05:55:47;16.10;99.90
14378;DHT22;7272;53.668;9.578;2022-07-29T05:58:49;16.20;99.90
14378;DHT22;7272;53.668;9.578;2022-07-29T06:01:51;16.30;99.90
14378;DHT22;7272;53.668;9.578;2022-07-29T06:04:54;16.30;99.90
14378;DHT22;7272;53.668;9.578;2022-07-29T06:07:56;16.30;99.90
14378;DHT22;7272;53.668;9.578;2022-07-29T06:10:58;16.60;99.90
14378;DHT22;7272;53.668;9.578;2022-07-29T06:14:00;16.70;99.90
14378;DHT22;7272;53.668;9.578;2022-07-29T06:17:03;16.70;99.90
14378;DHT22;7272;53.668;9.578;2022-07-29T06:20:08;16.80;99.90
14378;DHT22;7272;53.668;9.578;2022-07-29T06:23:10;16.80;99.90
14378;DHT22;7272;53.668;9.578;2022-07-29T06:26:12;16.80;99.90
14378;DHT22;7272;53.668;9.578;2022-07-29T06:29:14;16.80;99.90
14378;DHT22;7272;53.668;9.578;2022-07-29T06:32:16;17.00;99.90
14378;DHT22;7272;53.668;9.578;2022-07-29T06:35:21;17.10;99.90
14378;DHT22;7272;53.668;9.578;2022-07-29T06:38:23;17.20;99.90
14378;DHT22;7272;53.668;9.578;2022-07-29T06:41:25;17.20;99.90
14378;DHT22;7272;53.668;9.578;2022-07-29T06:44:27;17.10;99.90
14378;DHT22;7272;53.668;9.578;2022-07-29T06:47:29;17.20;99.90
14378;DHT22;7272;53.668;9.578;2022-07-29T06:50:32;17.30;99.90
14378;DHT22;7272;53.668;9.578;2022-07-29T06:53:34;17.30;99.90
14378;DHT22;7272;53.668;9.578;2022-07-29T06:56:37;17.40;99.90
14378;DHT22;7272;53.668;9.578;2022-07-29T06:59:41;17.40;99.90
14378;DHT22;7272;53.668;9.578;2022-07-29T07:02:43;17.50;99.90
14378;DHT22;7272;53.668;9.578;2022-07-29T07:05:47;17.60;99.90
14378;DHT22;7272;53.668;9.578;2022-07-29T07:08:49;17.60;99.90
14378;DHT22;7272;53.668;9.578;2022-07-29T07:11:51;17.70;99.90
14378;DHT22;7272;53.668;9.578;2022-07-29T07:14:53;17.80;99.90
14378;DHT22;7272;53.668;9.578;2022-07-29T07:17:57;17.80;99.90
14378;DHT22;7272;53.668;9.578;2022-07-29T07:21:01;17.90;99.90
14378;DHT22;7272;53.668;9.578;2022-07-29T07:24:03;17.90;99.90
14378;DHT22;7272;53.668;9.578;2022-07-29T07:27:05;18.20;99.90
14378;DHT22;7272;53.668;9.578;2022-07-29T07:30:07;18.30;99.90
14378;DHT22;7272;53.668;9.578;2022-07-29T07:33:10;18.40;99.90
14378;DHT22;7272;53.668;9.578;2022-07-29T07:36:13;18.50;99.90
14378;DHT22;7272;53.668;9.578;2022-07-29T07:39:15;18.60;99.90
14378;DHT22;7272;53.668;9.578;2022-07-29T07:42:17;18.60;99.90
14378;DHT22;7272;53.668;9.578;2022-07-29T07:45:19;18.60;99.90
14378;DHT22;7272;53.668;9.578;2022-07-29T07:48:21;18.90;99.90
14378;DHT22;7272;53.668;9.578;2022-07-29T07:51:25;19.20;99.90
14378;DHT22;7272;53.668;9.578;2022-07-29T07:54:27;19.50;99.90
14378;DHT22;7272;53.668;9.578;2022-07-29T07:57:29;19.70;99.90
14378;DHT22;7272;53.668;9.578;2022-07-29T08:00:31;19.90;99.90
14378;DHT22;7272;53.668;9.578;2022-07-29T08:03:33;20.00;99.90
14378;DHT22;7272;53.668;9.578;2022-07-29T08:06:37;20.30;99.90
14378;DHT22;7272;53.668;9.578;2022-07-29T08:09:39;20.40;99.90
14378;DHT22;7272;53.668;9.578;2022-07-29T08:12:41;20.40;99.90
14378;DHT22;7272;53.668;9.578;2022-07-29T08:15:43;20.60;99.90
14378;DHT22;7272;53.668;9.578;2022-07-29T08:18:46;20.60;99.90
14378;DHT22;7272;53.668;9.578;2022-07-29T08:21:49;20.70;99.90
14378;DHT22;7272;53.668;9.578;2022-07-29T08:24:53;20.80;99.90
14378;DHT22;7272;53.668;9.578;2022-07-29T08:27:56;20.80;99.90
14378;DHT22;7272;53.668;9.578;2022-07-29T08:30:58;20.90;99.90
14378;DHT22;7272;53.668;9.578;2022-07-29T08:34:00;21.10;99.90
14378;DHT22;7272;53.668;9.578;2022-07-29T08:37:04;21.50;99.90
14378;DHT22;7272;53.668;9.578;2022-07-29T08:40:07;21.80;99.90
14378;DHT22;7272;53.668;9.578;2022-07-29T08:43:09;21.90;99.90
14378;DHT22;7272;53.668;9.578;2022-07-29T08:46:11;21.90;99.90
14378;DHT22;7272;53.668;9.578;2022-07-29T08:49:13;22.00;99.90
14378;DHT22;7272;53.668;9.578;2022-07-29T08:52:17;21.90;99.90
14378;DHT22;7272;53.668;9.578;2022-07-29T08:55:19;22.00;99.90
14378;DHT22;7272;53.668;9.578;2022-07-29T08:58:22;22.10;99.90
14378;DHT22;7272;53.668;9.578;2022-07-29T09:01:27;22.00;99.90
14378;DHT22;7272;53.668;9.578;2022-07-29T09:04:34;21.90;99.90
14378;DHT22;7272;53.668;9.578;2022-07-29T09:07:39;21.80;99.90
14378;DHT22;7272;53.668;9.578;2022-07-29T09:10:43;21.70;99.90
14378;DHT22;7272;53.668;9.578;2022-07-29T09:13:45;21.70;99.90
14378;DHT22;7272;53.668;9.578;2022-07-29T09:16:54;21.80;99.90
14378;DHT22;7272;53.668;9.578;2022-07-29T09:20:08;22.00;99.90
14378;DHT22;7272;53.668;9.578;2022-07-29T09:23:12;21.90;99.90
14378;DHT22;7272;53.668;9.578;2022-07-29T09:26:15;21.80;99.90
14378;DHT22;7272;53.668;9.578;2022-07-29T09:29:19;21.70;99.90
14378;DHT22;7272;53.668;9.578;2022-07-29T09:32:21;21.60;99.90
14378;DHT22;7272;53.668;9.578;2022-07-29T09:35:25;21.60;99.90
14378;DHT22;7272;53.668;9.578;2022-07-29T09:38:28;21.60;99.90
14378;DHT22;7272;53.668;9.578;2022-07-29T09:41:48;21.50;99.90
14378;DHT22;7272;53.668;9.578;2022-07-29T09:44:50;21.40;99.90
14378;DHT22;7272;53.668;9.578;2022-07-29T09:47:52;21.40;99.90
14378;DHT22;7272;53.668;9.578;2022-07-29T09:50:54;21.40;99.90
14378;DHT22;7272;53.668;9.578;2022-07-29T09:54:00;21.40;99.90
14378;DHT22;7272;53.668;9.578;2022-07-29T09:57:05;21.50;99.90
14378;DHT22;7272;53.668;9.578;2022-07-29T10:00:11;21.50;99.90
14378;DHT22;7272;53.668;9.578;2022-07-29T10:03:14;21.60;99.90
14378;DHT22;7272;53.668;9.578;2022-07-29T10:06:16;21.60;99.90
14378;DHT22;7272;53.668;9.578;2022-07-29T10:09:19;21.70;99.90
14378;DHT22;7272;53.668;9.578;2022-07-29T10:12:23;21.70;99.90
14378;DHT22;7272;53.668;9.578;2022-07-29T10:15:27;21.80;99.90
14378;DHT22;7272;53.668;9.578;2022-07-29T10:18:29;22.00;99.90
14378;DHT22;7272;53.668;9.578;2022-07-29T10:21:34;22.10;99.90
14378;DHT22;7272;53.668;9.578;2022-07-29T10:24:39;22.10;99.90
14378;DHT22;7272;53.668;9.578;2022-07-29T10:27:42;22.20;99.90
14378;DHT22;7272;53.668;9.578;2022-07-29T10:30:47;22.20;99.90
14378;DHT22;7272;53.668;9.578;2022-07-29T10:33:59;22.30;99.90
14378;DHT22;7272;53.668;9.578;2022-07-29T10:37:11;22.70;99.90
14378;DHT22;7272;53.668;9.578;2022-07-29T10:40:28;22.70;99.90
14378;DHT22;7272;53.668;9.578;2022-07-29T10:43:55;22.70;99.90
14378;DHT22;7272;53.668;9.578;2022-07-29T10:46:58;22.80;99.90
14378;DHT22;7272;53.668;9.578;2022-07-29T10:50:05;22.90;99.90
14378;DHT22;7272;53.668;9.578;2022-07-29T10:53:08;22.90;99.90
14378;DHT22;7272;53.668;9.578;2022-07-29T10:56:24;22.90;99.90
14378;DHT22;7272;53.668;9.578;2022-07-29T10:59:27;23.00;99.90
14378;DHT22;7272;53.668;9.578;2022-07-29T11:02:42;23.00;99.90
14378;DHT22;7272;53.668;9.578;2022-07-29T11:05:55;23.00;99.90
14378;DHT22;7272;53.668;9.578;2022-07-29T11:09:17;23.30;99.90
14378;DHT22;7272;53.668;9.578;2022-07-29T11:12:48;23.50;99.90
14378;DHT22;7272;53.668;9.578;2022-07-29T11:15:52;23.60;99.90
14378;DHT22;7272;53.668;9.578;2022-07-29T11:19:20;23.70;99.90
14378;DHT22;7272;53.668;9.578;2022-07-29T11:22:33;23.90;99.90
14378;DHT22;7272;53.668;9.578;2022-07-29T11:25:36;24.30;99.90
14378;DHT22;7272;53.668;9.578;2022-07-29T11:28:48;24.60;99.90
14378;DHT22;7272;53.668;9.578;2022-07-29T11:31:52;24.90;99.90
14378;DHT22;7272;53.668;9.578;2022-07-29T11:35:13;25.10;99.90
14378;DHT22;7272;53.668;9.578;2022-07-29T11:38:26;25.10;99.90
14378;DHT22;7272;53.668;9.578;2022-07-29T11:41:28;25.10;99.90
14378;DHT22;7272;53.668;9.578;2022-07-29T11:44:55;25.30;99.90
14378;DHT22;7272;53.668;9.578;2022-07-29T11:47:59;25.50;99.90
14378;DHT22;7272;53.668;9.578;2022-07-29T11:51:09;25.40;99.90
14378;DHT22;7272;53.668;9.578;2022-07-29T11:54:17;25.50;99.90
14378;DHT22;7272;53.668;9.578;2022-07-29T11:57:23;25.90;99.90
14378;DHT22;7272;53.668;9.578;2022-07-29T12:00:30;26.40;99.90
14378;DHT22;7272;53.668;9.578;2022-07-29T12:03:32;26.70;99.90
14378;DHT22;7272;53.668;9.578;2022-07-29T12:06:35;26.70;99.90
14378;DHT22;7272;53.668;9.578;2022-07-29T12:09:37;26.40;99.90
14378;DHT22;7272;53.668;9.578;2022-07-29T12:12:39;26.30;99.90
14378;DHT22;7272;53.668;9.578;2022-07-29T12:15:52;26.10;99.90
14378;DHT22;7272;53.668;9.578;2022-07-29T12:18:57;26.10;99.90
14378;DHT22;7272;53.668;9.578;2022-07-29T12:22:00;26.10;99.90
14378;DHT22;7272;53.668;9.578;2022-07-29T12:25:05;26.00;99.90
14378;DHT22;7272;53.668;9.578;2022-07-29T12:28:11;25.70;99.90
14378;DHT22;7272;53.668;9.578;2022-07-29T12:31:18;25.40;99.90
14378;DHT22;7272;53.668;9.578;2022-07-29T12:34:22;25.50;99.90
14378;DHT22;7272;53.668;9.578;2022-07-29T12:37:24;25.70;99.90
14378;DHT22;7272;53.668;9.578;2022-07-29T12:40:26;26.10;99.90
14378;DHT22;7272;53.668;9.578;2022-07-29T12:43:29;26.60;99.90
14378;DHT22;7272;53.668;9.578;2022-07-29T12:46:32;27.20;99.90
14378;DHT22;7272;53.668;9.578;2022-07-29T12:49:35;27.50;99.90
14378;DHT22;7272;53.668;9.578;2022-07-29T12:52:37;27.70;99.90
14378;DHT22;7272;53.668;9.578;2022-07-29T12:55:41;27.90;99.90
14378;DHT22;7272;53.668;9.578;2022-07-29T12:58:44;28.00;99.90
14378;DHT22;7272;53.668;9.578;2022-07-29T13:01:49;28.20;99.90
14378;DHT22;7272;53.668;9.578;2022-07-29T13:04:56;28.40;99.90
14378;DHT22;7272;53.668;9.578;2022-07-29T13:08:10;28.50;99.90
14378;DHT22;7272;53.668;9.578;2022-07-29T13:11:28;28.60;99.90
14378;DHT22;7272;53.668;9.578;2022-07-29T13:14:31;28.60;99.90
14378;DHT22;7272;53.668;9.578;2022-07-29T13:17:39;28.60;99.90
14378;DHT22;7272;53.668;9.578;2022-07-29T13:20:43;28.60;99.90
14378;DHT22;7272;53.668;9.578;2022-07-29T13:23:45;28.80;99.90
14378;DHT22;7272;53.668;9.578;2022-07-29T13:26:46;28.90;99.90
14378;DHT22;7272;53.668;9.578;2022-07-29T13:29:49;29.00;99.90
14378;DHT22;7272;53.668;9.578;2022-07-29T13:32:54;29.00;99.90
14378;DHT22;7272;53.668;9.578;2022-07-29T13:35:56;28.90;99.90
14378;DHT22;7272;53.668;9.578;2022-07-29T13:38:58;28.60;99.90
14378;DHT22;7272;53.668;9.578;2022-07-29T13:42:01;28.20;99.90
14378;DHT22;7272;53.668;9.578;2022-07-29T13:45:05;28.00;99.90
14378;DHT22;7272;53.668;9.578;2022-07-29T13:48:08;27.70;99.90
14378;DHT22;7272;53.668;9.578;2022-07-29T13:51:11;27.40;99.90
14378;DHT22;7272;53.668;9.578;2022-07-29T13:54:13;27.20;99.90
14378;DHT22;7272;53.668;9.578;2022-07-29T13:57:17;27.30;99.90
14378;DHT22;7272;53.668;9.578;2022-07-29T14:00:19;27.50;99.90
14378;DHT22;7272;53.668;9.578;2022-07-29T14:03:23;27.50;99.90
14378;DHT22;7272;53.668;9.578;2022-07-29T14:06:25;27.30;99.90
14378;DHT22;7272;53.668;9.578;2022-07-29T14:09:27;27.20;99.90
14378;DHT22;7272;53.668;9.578;2022-07-29T14:12:29;27.00;99.90
14378;DHT22;7272;53.668;9.578;2022-07-29T14:15:31;27.10;99.90
14378;DHT22;7272;53.668;9.578;2022-07-29T14:18:34;27.20;99.90
14378;DHT22;7272;53.668;9.578;2022-07-29T14:21:37;27.20;99.90
14378;DHT22;7272;53.668;9.578;2022-07-29T14:24:39;27.30;99.90
14378;DHT22;7272;53.668;9.578;2022-07-29T14:27:41;27.40;99.90
14378;DHT22;7272;53.668;9.578;2022-07-29T14:30:44;27.30;99.90
14378;DHT22;7272;53.668;9.578;2022-07-29T14:33:47;27.10;99.90
14378;DHT22;7272;53.668;9.578;2022-07-29T14:36:49;27.20;99.90
14378;DHT22;7272;53.668;9.578;2022-07-29T14:39:56;27.40;99.90
14378;DHT22;7272;53.668;9.578;2022-07-29T14:43:00;27.70;99.90
14378;DHT22;7272;53.668;9.578;2022-07-29T14:46:02;27.90;99.90
14378;DHT22;7272;53.668;9.578;2022-07-29T14:49:05;27.80;99.90
14378;DHT22;7272;53.668;9.578;2022-07-29T14:52:07;27.50;99.90
14378;DHT22;7272;53.668;9.578;2022-07-29T14:55:09;27.20;99.90
14378;DHT22;7272;53.668;9.578;2022-07-29T14:58:11;26.80;99.90
14378;DHT22;7272;53.668;9.578;2022-07-29T15:01:14;26.60;99.90
14378;DHT22;7272;53.668;9.578;2022-07-29T15:04:17;26.60;99.90
14378;DHT22;7272;53.668;9.578;2022-07-29T15:07:20;26.30;99.90
14378;DHT22;7272;53.668;9.578;2022-07-29T15:10:22;26.00;99.90
14378;DHT22;7272;53.668;9.578;2022-07-29T15:13:25;25.90;99.90
14378;DHT22;7272;53.668;9.578;2022-07-29T15:16:27;25.90;99.90
14378;DHT22;7272;53.668;9.578;2022-07-29T15:19:30;25.70;99.90
14378;DHT22;7272;53.668;9.578;2022-07-29T15:22:33;25.80;99.90
14378;DHT22;7272;53.668;9.578;2022-07-29T15:25:35;25.70;99.90
14378;DHT22;7272;53.668;9.578;2022-07-29T15:28:37;25.70;99.90
14378;DHT22;7272;53.668;9.578;2022-07-29T15:31:39;25.60;99.90
14378;DHT22;7272;53.668;9.578;2022-07-29T15:34:43;25.70;99.90
14378;DHT22;7272;53.668;9.578;2022-07-29T15:37:45;25.70;99.90
14378;DHT22;7272;53.668;9.578;2022-07-29T15:40:47;25.90;99.90
14378;DHT22;7272;53.668;9.578;2022-07-29T15:43:49;25.90;99.90
14378;DHT22;7272;53.668;9.578;2022-07-29T15:46:51;25.80;99.90
14378;DHT22;7272;53.668;9.578;2022-07-29T15:50:08;25.70;99.90
14378;DHT22;7272;53.668;9.578;2022-07-29T15:53:15;25.90;99.90
14378;DHT22;7272;53.668;9.578;2022-07-29T15:56:17;25.80;99.90
14378;DHT22;7272;53.668;9.578;2022-07-29T15:59:19;25.70;99.90
14378;DHT22;7272;53.668;9.578;2022-07-29T16:02:21;25.60;99.90
14378;DHT22;7272;53.668;9.578;2022-07-29T16:05:24;25.40;99.90
14378;DHT22;7272;53.668;9.578;2022-07-29T16:08:29;25.30;99.90
14378;DHT22;7272;53.668;9.578;2022-07-29T16:11:31;25.30;99.90
14378;DHT22;7272;53.668;9.578;2022-07-29T16:14:33;25.10;99.90
14378;DHT22;7272;53.668;9.578;2022-07-29T16:17:35;25.10;99.90
14378;DHT22;7272;53.668;9.578;2022-07-29T16:20:38;25.10;99.90
14378;DHT22;7272;53.668;9.578;2022-07-29T16:23:41;24.90;99.90
14378;DHT22;7272;53.668;9.578;2022-07-29T16:26:43;24.90;99.90
14378;DHT22;7272;53.668;9.578;2022-07-29T16:29:45;24.80;99.90
14378;DHT22;7272;53.668;9.578;2022-07-29T16:32:49;24.80;99.90
14378;DHT22;7272;53.668;9.578;2022-07-29T16:35:53;24.70;99.90
14378;DHT22;7272;53.668;9.578;2022-07-29T16:38:58;24.70;99.90
14378;DHT22;7272;53.668;9.578;2022-07-29T16:42:00;24.70;99.90
14378;DHT22;7272;53.668;9.578;2022-07-29T16:45:02;24.70;99.90
14378;DHT22;7272;53.668;9.578;2022-07-29T16:48:05;24.80;99.90
14378;DHT22;7272;53.668;9.578;2022-07-29T16:51:08;24.70;99.90
14378;DHT22;7272;53.668;9.578;2022-07-29T16:54:10;24.60;99.90
14378;DHT22;7272;53.668;9.578;2022-07-29T16:57:12;24.60;99.90
14378;DHT22;7272;53.668;9.578;2022-07-29T17:00:16;24.50;99.90
14378;DHT22;7272;53.668;9.578;2022-07-29T17:03:18;24.40;99.90
14378;DHT22;7272;53.668;9.578;2022-07-29T17:06:21;24.30;99.90
14378;DHT22;7272;53.668;9.578;2022-07-29T17:09:23;24.30;99.90
14378;DHT22;7272;53.668;9.578;2022-07-29T17:12:25;24.20;99.90
14378;DHT22;7272;53.668;9.578;2022-07-29T17:15:27;24.20;99.90
14378;DHT22;7272;53.668;9.578;2022-07-29T17:18:29;24.10;99.90
14378;DHT22;7272;53.668;9.578;2022-07-29T17:21:33;24.10;99.90
14378;DHT22;7272;53.668;9.578;2022-07-29T17:24:35;24.00;99.90
14378;DHT22;7272;53.668;9.578;2022-07-29T17:27:37;23.90;99.90
14378;DHT22;7272;53.668;9.578;2022-07-29T17:30:39;23.90;99.90
14378;DHT22;7272;53.668;9.578;2022-07-29T17:33:41;23.80;99.90
14378;DHT22;7272;53.668;9.578;2022-07-29T17:36:46;23.80;99.90
14378;DHT22;7272;53.668;9.578;2022-07-29T17:39:48;23.70;99.90
14378;DHT22;7272;53.668;9.578;2022-07-29T17:42:50;23.60;99.90
14378;DHT22;7272;53.668;9.578;2022-07-29T17:45:52;23.60;99.90
14378;DHT22;7272;53.668;9.578;2022-07-29T17:48:55;23.60;99.90
14378;DHT22;7272;53.668;9.578;2022-07-29T17:51:59;23.60;99.90
14378;DHT22;7272;53.668;9.578;2022-07-29T17:55:01;23.50;99.90
14378;DHT22;7272;53.668;9.578;2022-07-29T17:58:03;23.40;99.90
14378;DHT22;7272;53.668;9.578;2022-07-29T18:01:06;23.30;99.90
14378;DHT22;7272;53.668;9.578;2022-07-29T18:04:08;23.20;99.90
14378;DHT22;7272;53.668;9.578;2022-07-29T18:07:12;23.20;99.90
14378;DHT22;7272;53.668;9.578;2022-07-29T18:10:14;23.10;99.90
14378;DHT22;7272;53.668;9.578;2022-07-29T18:13:17;23.00;99.90
14378;DHT22;7272;53.668;9.578;2022-07-29T18:16:19;22.90;99.90
14378;DHT22;7272;53.668;9.578;2022-07-29T18:19:21;22.80;99.90
14378;DHT22;7272;53.668;9.578;2022-07-29T18:22:25;22.70;99.90
14378;DHT22;7272;53.668;9.578;2022-07-29T18:25:27;22.80;99.90
14378;DHT22;7272;53.668;9.578;2022-07-29T18:28:29;22.80;99.90
14378;DHT22;7272;53.668;9.578;2022-07-29T18:31:32;22.70;99.90
14378;DHT22;7272;53.668;9.578;2022-07-29T18:34:34;22.50;99.90
14378;DHT22;7272;53.668;9.578;2022-07-29T18:37:37;22.40;99.90
14378;DHT22;7272;53.668;9.578;2022-07-29T18:40:39;22.50;99.90
14378;DHT22;7272;53.668;9.578;2022-07-29T18:43:42;22.50;99.90
14378;DHT22;7272;53.668;9.578;2022-07-29T18:46:45;22.40;99.90
14378;DHT22;7272;53.668;9.578;2022-07-29T18:49:47;22.20;99.90
14378;DHT22;7272;53.668;9.578;2022-07-29T18:52:50;22.10;99.90
14378;DHT22;7272;53.668;9.578;2022-07-29T18:55:54;22.00;99.90
14378;DHT22;7272;53.668;9.578;2022-07-29T18:58:57;21.80;99.90
14378;DHT22;7272;53.668;9.578;2022-07-29T19:01:59;21.80;99.90
14378;DHT22;7272;53.668;9.578;2022-07-29T19:05:01;21.70;99.90
14378;DHT22;7272;53.668;9.578;2022-07-29T19:08:05;21.60;99.90
14378;DHT22;7272;53.668;9.578;2022-07-29T19:11:07;21.60;99.90
14378;DHT22;7272;53.668;9.578;2022-07-29T19:14:09;21.50;99.90
14378;DHT22;7272;53.668;9.578;2022-07-29T19:17:13;21.50;99.90
14378;DHT22;7272;53.668;9.578;2022-07-29T19:20:15;21.40;99.90
14378;DHT22;7272;53.668;9.578;2022-07-29T19:23:19;21.30;99.90
14378;DHT22;7272;53.668;9.578;2022-07-29T19:26:21;21.10;99.90
14378;DHT22;7272;53.668;9.578;2022-07-29T19:29:23;21.00;99.90
14378;DHT22;7272;53.668;9.578;2022-07-29T19:32:26;20.90;99.90
14378;DHT22;7272;53.668;9.578;2022-07-29T19:35:28;21.00;99.90
14378;DHT22;7272;53.668;9.578;2022-07-29T19:38:33;20.90;99.90
14378;DHT22;7272;53.668;9.578;2022-07-29T19:41:35;20.80;99.90